Time;durP1;ratioP1;P1;durP2;ratioP2;P2;SDS_P1;SDS_P2;PMS_P1;PMS_P2;Temp;Humidity;BMP_temperature;BMP_pressure;BME280_temperature;BME280_humidity;BME280_pressure;Samples;Min_cycle;Max_cycle;Signal;HPM_P1;HPM_P2
2022/09/26 00:01:50;;;;;;;2.83;2.53;;;11.60;99.90;;;;;;5010338;28;20028;-75
2022/09/26 00:04:22;;;;;;;3.42;2.08;;;11.50;99.90;;;;;;5010222;28;20037;-75
2022/09/26 00:06:48;;;;;;;3.83;1.70;;;11.50;99.90;;;;;;5010209;28;20026;-75
2022/09/26 00:09:15;;;;;;;10.65;2.25;;;11.50;99.90;;;;;;5010246;28;20505;-74
2022/09/26 00:11:41;;;;;;;3.45;2.00;;;11.50;99.90;;;;;;5010347;28;20018;-74
2022/09/26 00:14:12;;;;;;;4.03;1.85;;;11.40;99.90;;;;;;5010172;28;20022;-75
2022/09/26 00:16:38;;;;;;;3.47;2.15;;;11.40;99.90;;;;;;5010232;28;20474;-74
2022/09/26 00:19:04;;;;;;;4.65;2.83;;;11.40;99.90;;;;;;5010403;28;20038;-74
2022/09/26 00:21:30;;;;;;;6.40;3.60;;;11.40;99.90;;;;;;5010079;28;20018;-74
2022/09/26 00:23:58;;;;;;;8.57;3.45;;;11.40;99.90;;;;;;5009883;28;20056;-74
2022/09/26 00:26:25;;;;;;;4.10;2.38;;;11.40;99.90;;;;;;5010239;28;20022;-75
2022/09/26 00:28:51;;;;;;;4.40;2.88;;;11.30;99.90;;;;;;5010272;28;20119;-75
2022/09/26 00:31:19;;;;;;;5.15;3.20;;;;;;;;;;5009813;28;20022;-75
2022/09/26 00:33:45;;;;;;;7.60;3.95;;;11.30;99.90;;;;;;5010091;28;20394;-75
2022/09/26 00:36:11;;;;;;;2.20;2.00;;;11.30;99.90;;;;;;5012452;28;20022;-75
2022/09/26 00:38:37;;;;;;;5.07;3.08;;;11.30;99.90;;;;;;5013920;28;20026;-75
2022/09/26 00:41:04;;;;;;;6.32;2.50;;;11.30;99.90;;;;;;5013739;28;20041;-76
2022/09/26 00:43:32;;;;;;;2.67;2.35;;;11.30;99.90;;;;;;5013518;28;20510;-74
2022/09/26 00:46:24;;;;;;;3.00;2.70;;;11.30;99.90;;;;;;5013800;28;20113;-77
2022/09/26 00:49:20;;;;;;;4.45;3.05;;;11.20;99.90;;;;;;5012951;28;20310;-75
2022/09/26 00:52:01;;;;;;;7.47;3.95;;;11.20;99.90;;;;;;5027437;28;20478;-75
2022/09/26 00:54:29;;;;;;;4.47;3.08;;;11.20;99.90;;;;;;5012892;28;20145;-75
2022/09/26 00:57:02;;;;;;;2.47;2.20;;;11.20;99.90;;;;;;5013462;28;20030;-75
2022/09/26 00:59:53;;;;;;;5.93;2.80;;;11.20;99.90;;;;;;5028399;28;20030;-75
2022/09/26 01:02:24;;;;;;;6.60;2.10;;;11.10;99.90;;;;;;5013670;28;20378;-76
2022/09/26 01:04:51;;;;;;;4.50;2.97;;;11.10;99.90;;;;;;5013488;28;20092;-75
2022/09/26 01:07:23;;;;;;;4.53;2.25;;;11.10;99.90;;;;;;5012829;28;20030;-76
2022/09/26 01:09:53;;;;;;;6.35;3.28;;;11.10;99.90;;;;;;5011400;28;20083;-74
2022/09/26 01:12:22;;;;;;;19.60;2.92;;;11.20;99.90;;;;;;5011677;28;20111;-75
2022/09/26 01:14:51;;;;;;;2.50;2.30;;;11.20;99.90;;;;;;5011300;28;20037;-75
2022/09/26 01:17:16;;;;;;;2.67;2.20;;;11.20;99.90;;;;;;5011330;28;20044;-75
2022/09/26 01:19:57;;;;;;;6.75;4.82;;;11.20;99.90;;;;;;5011428;28;20026;-75
2022/09/26 01:23:01;;;;;;;3.35;2.67;;;11.10;99.90;;;;;;5012122;28;20026;-74
2022/09/26 01:25:54;;;;;;;4.68;2.75;;;11.20;99.90;;;;;;4982554;28;20233;-75
2022/09/26 01:28:29;;;;;;;4.55;2.65;;;11.10;99.90;;;;;;5012867;28;20080;-78
2022/09/26 01:30:55;;;;;;;2.63;1.77;;;11.10;99.90;;;;;;5016129;28;20026;-79
2022/09/26 01:33:44;;;;;;;3.97;2.75;;;11.10;99.90;;;;;;5016311;28;20540;-78
2022/09/26 01:36:38;;;;;;;4.53;2.63;;;11.10;99.90;;;;;;5015385;28;20486;-78
2022/09/26 01:39:35;;;;;;;4.15;3.05;;;11.10;99.90;;;;;;5014532;28;20038;-77
2022/09/26 01:42:18;;;;;;;6.38;2.10;;;11.10;99.90;;;;;;5012890;28;20022;-78
2022/09/26 01:44:49;;;;;;;3.85;2.65;;;;;;;;;;5027498;28;20038;-78
2022/09/26 01:47:28;;;;;;;4.45;2.20;;;11.10;99.90;;;;;;5012318;28;20034;-76
2022/09/26 01:50:03;;;;;;;6.60;2.90;;;11.00;99.90;;;;;;5012646;28;20048;-75
2022/09/26 01:53:22;;;;;;;4.53;3.75;;;11.00;99.90;;;;;;5011132;28;20030;-74
2022/09/26 01:55:55;;;;;;;3.38;2.53;;;11.00;99.90;;;;;;5012807;28;20025;-75
2022/09/26 01:58:24;;;;;;;5.60;3.15;;;11.00;99.90;;;;;;5012328;28;20025;-74
2022/09/26 02:00:57;;;;;;;;;;;11.00;99.90;;;;;;5012886;28;20022;-74
2022/09/26 02:03:28;;;;;;;5.75;3.65;;;11.00;99.90;;;;;;5012454;28;19912;-74
2022/09/26 02:06:04;;;;;;;10.48;3.08;;;12.10;99.90;;;;;;5012493;28;20117;-75
2022/09/26 02:08:36;;;;;;;4.90;3.13;;;11.00;99.90;;;;;;5027660;28;20040;-75
2022/09/26 02:11:15;;;;;;;3.53;2.53;;;11.00;99.90;;;;;;5012171;28;20018;-74
2022/09/26 02:14:02;;;;;;;2.90;2.63;;;11.00;99.90;;;;;;5012020;28;20112;-74
2022/09/26 02:16:50;;;;;;;8.15;2.60;;;11.00;99.90;;;;;;5012298;28;20026;-77
2022/09/26 02:19:22;;;;;;;5.88;3.45;;;11.00;99.90;;;;;;5012347;28;20092;-78
2022/09/26 02:21:49;;;;;;;7.75;3.50;;;11.00;99.90;;;;;;5012156;28;20099;-77
2022/09/26 02:24:15;;;;;;;5.28;2.42;;;11.00;99.90;;;;;;5010708;28;20056;-77
2022/09/26 02:26:41;;;;;;;3.90;3.40;;;11.00;99.90;;;;;;5012014;28;20482;-75
2022/09/26 02:29:08;;;;;;;8.45;2.58;;;11.10;99.90;;;;;;5011709;28;20036;-76
2022/09/26 02:31:45;;;;;;;10.95;3.85;;;11.00;99.90;;;;;;5011913;28;20054;-75
2022/09/26 02:34:13;;;;;;;4.68;2.58;;;11.00;99.90;;;;;;5011794;28;20030;-75
2022/09/26 02:36:43;;;;;;;4.25;2.75;;;11.00;99.90;;;;;;5011806;28;20041;-74
2022/09/26 02:39:12;;;;;;;3.53;1.98;;;11.00;99.90;;;;;;5011706;28;20018;-77
2022/09/26 02:41:48;;;;;;;4.53;2.78;;;11.00;99.90;;;;;;5011760;28;20469;-74
2022/09/26 02:44:14;;;;;;;4.68;2.60;;;10.90;99.90;;;;;;5026830;28;20033;-75
2022/09/26 02:47:09;;;;;;;4.78;3.25;;;10.90;99.90;;;;;;5011388;28;20030;-76
2022/09/26 02:49:56;;;;;;;6.18;3.65;;;10.90;99.90;;;;;;4940882;28;20082;-75
2022/09/26 02:52:46;;;;;;;4.93;2.35;;;10.90;99.90;;;;;;5011673;28;20036;-77
2022/09/26 02:55:42;;;;;;;2.13;1.88;;;10.80;99.90;;;;;;5026456;28;20065;-77
2022/09/26 02:58:21;;;;;;;2.60;1.60;;;10.70;99.90;;;;;;5010957;28;20113;-76
2022/09/26 03:01:09;;;;;;;3.58;2.13;;;10.70;99.90;;;;;;5011343;28;20025;-77
2022/09/26 03:03:42;;;;;;;8.07;3.78;;;10.60;99.90;;;;;;5011240;28;20026;-75
2022/09/26 03:06:12;;;;;;;6.57;2.60;;;10.50;99.90;;;;;;5011467;28;20022;-75
2022/09/26 03:08:40;;;;;;;;;;;10.50;99.90;;;;;;5011892;28;20065;-74
2022/09/26 03:11:09;;;;;;;2.13;1.95;;;10.50;99.90;;;;;;5011121;28;19906;-74
2022/09/26 03:13:37;;;;;;;;;;;10.50;99.90;;;;;;5011627;28;20033;-75
2022/09/26 03:16:04;;;;;;;3.70;2.03;;;10.40;99.90;;;;;;5011266;28;19929;-74
2022/09/26 03:18:50;;;;;;;4.78;3.17;;;10.40;99.90;;;;;;5010977;28;20101;-74
2022/09/26 03:21:17;;;;;;;4.18;2.22;;;10.40;99.90;;;;;;5011123;28;20090;-75
2022/09/26 03:23:42;;;;;;;3.90;2.50;;;10.40;99.90;;;;;;5011037;28;20026;-74
2022/09/26 03:26:12;;;;;;;3.83;2.88;;;10.40;99.90;;;;;;5010809;28;20030;-75
2022/09/26 03:28:39;;;;;;;3.33;2.83;;;10.40;99.90;;;;;;5010876;28;20505;-74
2022/09/26 03:31:06;;;;;;;3.03;1.60;;;10.50;99.90;;;;;;5010913;28;20041;-75
2022/09/26 03:33:31;;;;;;;6.68;3.42;;;10.40;99.90;;;;;;5010761;28;20525;-74
2022/09/26 03:36:00;;;;;;;4.15;3.17;;;10.40;99.90;;;;;;5011057;28;20042;-74
2022/09/26 03:38:26;;;;;;;4.40;2.20;;;10.40;99.90;;;;;;5010792;28;20038;-74
2022/09/26 03:40:52;;;;;;;3.80;3.03;;;10.40;99.90;;;;;;5010721;28;20048;-75
2022/09/26 03:43:23;;;;;;;8.63;2.50;;;10.50;99.90;;;;;;5010768;28;20030;-74
2022/09/26 03:45:51;;;;;;;4.35;2.38;;;10.40;99.90;;;;;;5010777;28;20471;-75
2022/09/26 03:48:17;;;;;;;4.50;2.90;;;10.50;99.90;;;;;;5011000;28;20034;-78
2022/09/26 03:50:42;;;;;;;6.45;3.17;;;10.60;99.90;;;;;;5010742;28;20033;-77
2022/09/26 03:53:09;;;;;;;3.25;2.65;;;10.60;99.90;;;;;;5010587;28;20029;-76
2022/09/26 03:55:34;;;;;;;6.10;3.85;;;10.60;99.90;;;;;;5010592;28;20022;-76
2022/09/26 03:58:01;;;;;;;6.78;2.58;;;10.60;99.90;;;;;;5010202;28;20047;-77
2022/09/26 04:00:27;;;;;;;5.65;2.83;;;;;;;;;;5010564;28;20022;-76
2022/09/26 04:02:52;;;;;;;5.05;1.80;;;10.60;99.90;;;;;;5010472;28;20029;-75
2022/09/26 04:05:19;;;;;;;4.10;2.05;;;10.50;99.90;;;;;;5010385;28;20041;-76
2022/09/26 04:07:46;;;;;;;4.50;2.53;;;10.60;99.90;;;;;;5010531;28;20028;-74
2022/09/26 04:10:12;;;;;;;3.58;2.83;;;10.60;99.90;;;;;;5013055;28;20435;-74
2022/09/26 04:12:39;;;;;;;3.13;2.40;;;10.60;99.90;;;;;;5014504;28;20311;-74
2022/09/26 04:15:06;;;;;;;5.13;3.83;;;10.60;99.90;;;;;;5014266;28;20022;-75
2022/09/26 04:17:32;;;;;;;4.57;3.65;;;10.60;99.90;;;;;;5014735;28;20022;-77
2022/09/26 04:19:58;;;;;;;6.57;3.33;;;10.60;99.90;;;;;;5014661;28;20296;-77
2022/09/26 04:22:24;;;;;;;4.38;3.92;;;10.60;99.90;;;;;;5014460;28;20627;-77
2022/09/26 04:24:50;;;;;;;3.50;2.78;;;10.60;99.90;;;;;;5033556;28;20034;-75
2022/09/26 04:27:20;;;;;;;8.13;2.75;;;10.20;99.90;;;;;;5021702;28;20022;-77
2022/09/26 04:29:45;;;;;;;2.97;2.78;;;10.60;99.90;;;;;;5017870;28;20018;-76
2022/09/26 04:32:11;;;;;;;6.60;2.65;;;10.60;99.90;;;;;;5016736;28;20053;-76
2022/09/26 04:34:39;;;;;;;4.82;2.30;;;10.60;99.90;;;;;;5016738;28;20157;-75
2022/09/26 04:37:05;;;;;;;5.00;2.17;;;10.50;99.90;;;;;;5014858;28;20026;-75
2022/09/26 04:39:31;;;;;;;3.90;2.80;;;;;;;;;;5014332;28;20029;-75
2022/09/26 04:41:57;;;;;;;11.30;3.33;;;10.50;99.90;;;;;;5014494;28;20022;-74
2022/09/26 04:44:23;;;;;;;2.35;1.92;;;10.40;99.90;;;;;;5029120;28;20124;-74
2022/09/26 04:46:49;;;;;;;2.22;2.08;;;10.40;99.90;;;;;;5014012;28;20180;-74
2022/09/26 04:49:14;;;;;;;4.35;3.60;;;10.40;99.90;;;;;;5014107;28;20128;-75
2022/09/26 04:51:40;;;;;;;2.63;2.40;;;10.30;99.90;;;;;;5014015;28;20110;-75
2022/09/26 04:54:07;;;;;;;6.05;3.15;;;11.20;99.90;;;;;;5029312;28;20057;-76
2022/09/26 04:56:33;;;;;;;7.57;2.55;;;10.30;99.90;;;;;;5014078;28;20467;-77
2022/09/26 04:58:59;;;;;;;4.13;1.92;;;10.30;99.90;;;;;;5028644;28;20017;-76
2022/09/26 05:01:25;;;;;;;9.13;3.08;;;10.30;99.90;;;;;;5013946;28;20030;-76
2022/09/26 05:03:57;;;;;;;2.15;1.95;;;10.30;99.90;;;;;;5013620;28;20065;-75
2022/09/26 05:06:23;;;;;;;6.25;2.75;;;10.30;99.90;;;;;;5013845;28;20030;-75
2022/09/26 05:08:49;;;;;;;3.30;2.72;;;10.40;99.90;;;;;;5014155;28;20021;-75
2022/09/26 05:11:17;;;;;;;3.53;3.20;;;10.40;99.90;;;;;;5013836;28;20037;-75
2022/09/26 05:13:43;;;;;;;12.60;4.13;;;10.40;99.90;;;;;;5013868;28;20041;-76
2022/09/26 05:16:10;;;;;;;6.78;3.95;;;10.50;99.90;;;;;;5013895;28;20022;-75
2022/09/26 05:18:38;;;;;;;4.75;2.38;;;10.50;99.90;;;;;;5014546;28;20026;-78
2022/09/26 05:21:05;;;;;;;3.47;2.90;;;10.50;99.90;;;;;;5015077;28;20467;-79
2022/09/26 05:26:31;;;;;;;2.15;1.90;;;10.50;99.90;;;;;;5013465;28;20448;-77
2022/09/26 05:29:03;;;;;;;3.65;3.10;;;10.50;99.90;;;;;;5028143;28;20380;-77
2022/09/26 05:31:31;;;;;;;5.57;2.85;;;10.40;99.90;;;;;;5012838;28;20042;-77
2022/09/26 05:33:57;;;;;;;4.60;3.05;;;10.40;99.90;;;;;;5013111;28;20014;-78
2022/09/26 05:36:26;;;;;;;2.33;2.13;;;10.40;99.90;;;;;;5013205;28;20022;-78
2022/09/26 05:38:52;;;;;;;5.70;2.85;;;10.40;99.90;;;;;;5013140;28;20033;-77
2022/09/26 05:41:18;;;;;;;4.20;2.72;;;10.40;99.90;;;;;;5018989;28;20136;-77
2022/09/26 05:43:46;;;;;;;8.05;2.65;;;10.40;99.90;;;;;;5023811;28;20025;-76
2022/09/26 05:46:12;;;;;;;5.30;3.25;;;10.40;99.90;;;;;;5023870;28;20313;-77
2022/09/26 05:48:39;;;;;;;4.55;4.10;;;10.40;99.90;;;;;;5015134;28;20018;-76
2022/09/26 05:51:11;;;;;;;7.20;4.68;;;10.50;99.90;;;;;;5012738;28;20096;-77
2022/09/26 05:53:38;;;;;;;7.80;2.78;;;10.50;99.90;;;;;;5013531;28;20100;-76
2022/09/26 05:56:05;;;;;;;12.18;4.20;;;10.50;99.90;;;;;;5014042;28;20053;-76
2022/09/26 05:58:33;;;;;;;4.20;2.80;;;10.60;99.90;;;;;;5013116;28;20505;-76
2022/09/26 06:01:10;;;;;;;2.95;2.75;;;10.60;99.90;;;;;;5012611;28;20441;-76
2022/09/26 06:03:36;;;;;;;2.65;2.00;;;10.60;99.90;;;;;;5011759;28;20033;-78
2022/09/26 06:06:07;;;;;;;4.80;3.22;;;10.70;99.90;;;;;;5012637;28;20587;-77
2022/09/26 06:08:34;;;;;;;7.88;2.55;;;10.70;99.90;;;;;;5004767;28;20014;-78
2022/09/26 06:11:02;;;;;;;4.35;1.80;;;10.70;99.90;;;;;;5010271;28;20026;-79
2022/09/26 06:13:28;;;;;;;8.23;3.42;;;10.80;99.90;;;;;;5009094;28;20036;-77
2022/09/26 06:15:56;;;;;;;6.88;4.13;;;10.80;99.90;;;;;;5010472;28;20027;-76
2022/09/26 06:18:22;;;;;;;7.45;2.42;;;10.70;99.90;;;;;;5009186;28;20022;-76
2022/09/26 06:20:47;;;;;;;6.05;2.45;;;10.70;99.90;;;;;;5008598;28;20034;-75
2022/09/26 06:23:13;;;;;;;8.05;2.83;;;10.70;99.90;;;;;;5008612;28;20438;-76
2022/09/26 06:25:39;;;;;;;3.67;2.00;;;10.70;99.90;;;;;;5006655;28;20049;-77
2022/09/26 06:28:04;;;;;;;5.60;2.20;;;10.60;99.90;;;;;;5008739;28;20022;-77
2022/09/26 06:30:30;;;;;;;8.95;3.42;;;10.70;99.90;;;;;;5009349;28;20037;-77
2022/09/26 06:32:57;;;;;;;4.68;2.53;;;10.60;99.90;;;;;;5007938;28;20041;-77
2022/09/26 06:35:26;;;;;;;8.63;2.95;;;10.70;99.90;;;;;;5010891;28;20109;-77
2022/09/26 06:37:52;;;;;;;6.05;2.10;;;10.60;99.90;;;;;;5008574;28;20478;-78
2022/09/26 06:40:18;;;;;;;8.27;2.72;;;10.00;99.90;;;;;;5008424;28;20030;-76
2022/09/26 06:42:44;;;;;;;4.80;2.38;;;10.70;99.90;;;;;;5007995;28;20026;-76
2022/09/26 06:45:16;;;;;;;10.00;3.35;;;10.70;99.90;;;;;;5007160;28;20034;-78
2022/09/26 06:47:42;;;;;;;3.88;2.67;;;10.80;99.90;;;;;;5009086;28;20512;-78
2022/09/26 06:50:09;;;;;;;6.65;3.05;;;10.80;99.90;;;;;;5006993;28;20129;-75
2022/09/26 06:52:34;;;;;;;8.73;2.97;;;10.80;99.90;;;;;;5008857;28;20028;-75
2022/09/26 06:55:01;;;;;;;5.45;2.97;;;10.80;99.90;;;;;;5008403;28;20101;-75
2022/09/26 06:57:28;;;;;;;2.67;2.35;;;11.00;99.90;;;;;;5007383;28;20186;-75
2022/09/26 06:59:55;;;;;;;3.00;2.40;;;11.00;99.90;;;;;;5009684;28;20054;-75
2022/09/26 07:02:21;;;;;;;3.08;2.28;;;11.10;99.90;;;;;;5008018;28;20030;-77
2022/09/26 07:04:47;;;;;;;2.85;2.20;;;11.30;99.90;;;;;;5007722;28;20038;-77
2022/09/26 07:07:12;;;;;;;1.83;1.73;;;11.50;99.90;;;;;;5008023;28;20433;-77
2022/09/26 07:09:39;;;;;;;3.15;2.50;;;11.60;99.90;;;;;;5008335;28;20037;-78
2022/09/26 07:12:05;;;;;;;5.00;2.35;;;11.80;99.90;;;;;;5007275;28;20068;-76
2022/09/26 07:14:31;;;;;;;2.35;1.88;;;11.90;99.90;;;;;;5007881;28;20084;-77
2022/09/26 07:16:57;;;;;;;5.13;2.45;;;11.90;99.90;;;;;;5006729;28;20018;-76
2022/09/26 07:19:23;;;;;;;3.95;2.28;;;12.10;99.90;;;;;;5007819;28;20045;-77
2022/09/26 07:21:48;;;;;;;3.10;2.80;;;12.10;99.90;;;;;;5008334;28;20040;-81
2022/09/26 07:24:14;;;;;;;4.93;2.42;;;12.10;99.90;;;;;;5008312;28;20069;-79
2022/09/26 07:26:41;;;;;;;3.17;2.00;;;12.20;99.90;;;;;;5007199;28;20030;-77
2022/09/26 07:29:07;;;;;;;1.90;1.55;;;12.30;99.90;;;;;;5007764;28;20394;-78
2022/09/26 07:31:33;;;;;;;2.35;1.58;;;12.40;99.90;;;;;;5007772;28;20223;-78
2022/09/26 07:34:02;;;;;;;2.13;1.85;;;12.50;99.90;;;;;;5010051;28;20371;-79
2022/09/26 07:36:29;;;;;;;2.35;1.75;;;12.40;99.90;;;;;;5009487;28;20037;-78
2022/09/26 07:38:54;;;;;;;3.28;1.60;;;12.70;99.90;;;;;;5007487;28;20025;-78
2022/09/26 07:41:20;;;;;;;16.63;2.90;;;12.90;99.90;;;;;;5008019;28;20379;-76
2022/09/26 07:43:46;;;;;;;2.88;2.67;;;12.80;99.90;;;;;;5007415;28;20208;-79
2022/09/26 07:51:49;;;;;;;4.80;2.15;;;12.60;99.90;;;;;;5007517;28;20036;-77
2022/09/26 07:54:14;;;;;;;2.28;2.00;;;12.70;99.90;;;;;;5007342;28;20160;-76
2022/09/26 07:56:40;;;;;;;4.75;2.05;;;12.10;99.90;;;;;;5007291;28;20143;-77
2022/09/26 07:59:06;;;;;;;3.42;1.73;;;12.00;99.90;;;;;;5007168;28;20104;-77
2022/09/26 08:01:32;;;;;;;1.77;1.67;;;12.10;99.90;;;;;;5007101;28;20172;-77
2022/09/26 08:03:57;;;;;;;2.47;2.22;;;12.30;99.90;;;;;;5007310;28;20418;-77
2022/09/26 08:06:35;;;;;;;5.47;2.35;;;12.50;99.90;;;;;;5022142;28;20502;-77
2022/09/26 08:09:04;;;;;;;1.63;1.38;;;12.70;99.90;;;;;;5007523;28;20139;-77
2022/09/26 08:11:30;;;;;;;2.47;1.80;;;12.50;99.90;;;;;;5007097;28;20022;-78
2022/09/26 08:13:55;;;;;;;8.45;2.72;;;12.40;99.90;;;;;;5021926;28;20045;-78
2022/09/26 08:16:22;;;;;;;2.03;1.80;;;12.20;99.90;;;;;;5006554;28;20034;-78
2022/09/26 08:18:51;;;;;;;4.00;2.20;;;12.10;99.90;;;;;;5006905;28;20028;-78
2022/09/26 08:21:22;;;;;;;6.65;2.17;;;12.10;99.90;;;;;;5005906;28;20438;-78
2022/09/26 08:23:53;;;;;;;2.65;2.10;;;12.10;99.90;;;;;;5005745;28;20061;-78
2022/09/26 08:26:44;;;;;;;5.03;1.88;;;12.10;99.90;;;;;;5007316;28;20064;-78
2022/09/26 08:29:11;;;;;;;1.65;1.55;;;;;;;;;;5005186;28;20030;-78
2022/09/26 08:31:37;;;;;;;5.03;2.88;;;12.50;99.90;;;;;;5007067;28;20064;-78
2022/09/26 08:34:04;;;;;;;1.17;1.08;;;12.70;99.90;;;;;;5006741;28;20536;-79
2022/09/26 08:36:31;;;;;;;2.10;1.33;;;12.70;99.90;;;;;;5005739;28;20326;-78
2022/09/26 08:39:04;;;;;;;1.83;1.35;;;12.80;99.90;;;;;;5006784;28;20225;-78
2022/09/26 08:41:51;;;;;;;3.88;1.70;;;13.20;99.90;;;;;;5007108;28;20478;-78
2022/09/26 08:44:33;;;;;;;4.13;3.40;;;13.00;99.90;;;;;;5005717;28;20057;-78
2022/09/26 08:47:05;;;;;;;1.92;1.83;;;12.90;99.90;;;;;;5008199;28;20039;-78
2022/09/26 08:49:59;;;;;;;2.17;1.55;;;12.70;99.90;;;;;;5007480;28;20100;-76
2022/09/26 08:53:05;;;;;;;1.48;1.30;;;12.70;99.90;;;;;;5005165;28;20493;-78
2022/09/26 08:55:42;;;;;;;1.50;1.10;;;12.90;99.90;;;;;;4945737;28;20575;-78
2022/09/26 08:58:38;;;;;;;1.55;1.48;;;12.90;99.90;;;;;;4949594;29;20031;-77
2022/09/26 09:01:13;;;;;;;3.38;1.35;;;13.00;99.90;;;;;;4995804;28;20038;-77
2022/09/26 09:03:54;;;;;;;2.13;1.85;;;12.80;99.90;;;;;;5009501;28;20022;-76
2022/09/26 09:06:20;;;;;;;1.23;1.02;;;13.00;99.90;;;;;;5009709;28;20564;-77
2022/09/26 09:08:48;;;;;;;3.40;1.90;;;13.20;99.90;;;;;;5008671;28;20068;-78
2022/09/26 09:11:39;;;;;;;1.52;1.00;;;13.50;99.90;;;;;;5010559;28;20088;-77
2022/09/26 09:14:30;;;;;;;1.08;0.57;;;13.50;99.90;;;;;;5009566;28;20565;-77
2022/09/26 09:16:59;;;;;;;1.50;1.40;;;13.80;99.90;;;;;;4986703;28;20737;-78
2022/09/26 09:19:36;;;;;;;0.52;0.52;;;14.10;99.90;;;;;;5009805;28;20037;-77
2022/09/26 09:22:21;;;;;;;0.60;0.50;;;14.60;99.90;;;;;;5010133;28;20983;-77
2022/09/26 09:25:00;;;;;;;0.40;0.30;;;15.10;99.90;;;;;;5009903;28;20048;-77
2022/09/26 09:28:02;;;;;;;0.45;0.45;;;15.60;99.90;;;;;;5008566;28;20025;-77
2022/09/26 09:30:43;;;;;;;1.02;0.82;;;16.10;99.90;;;;;;5008445;28;20033;-78
2022/09/26 09:33:32;;;;;;;1.10;0.68;;;16.10;99.90;;;;;;5009880;28;20313;-78
2022/09/26 09:36:18;;;;;;;0.30;0.28;;;16.00;99.90;;;;;;5008524;28;20025;-77
2022/09/26 09:38:47;;;;;;;0.30;0.30;;;16.00;99.90;;;;;;5008814;28;20088;-78
2022/09/26 09:41:15;;;;;;;5.07;0.73;;;16.10;99.90;;;;;;5009663;28;20018;-77
2022/09/26 09:43:48;;;;;;;1.42;0.73;;;15.50;99.90;;;;;;5009105;28;20022;-77
2022/09/26 09:46:39;;;;;;;0.43;0.32;;;15.40;99.90;;;;;;5008297;28;20041;-77
2022/09/26 09:49:10;;;;;;;1.67;1.10;;;15.40;99.90;;;;;;5009485;28;20024;-77
2022/09/26 09:51:57;;;;;;;4.53;1.15;;;15.40;99.90;;;;;;5009176;28;20375;-76
2022/09/26 09:54:55;;;;;;;0.75;0.75;;;15.40;99.90;;;;;;5007981;28;20041;-77
2022/09/26 09:58:03;;;;;;;0.50;0.40;;;15.50;99.90;;;;;;4986197;28;20076;-77
2022/09/26 10:00:32;;;;;;;0.57;0.40;;;15.50;99.90;;;;;;5001250;28;20046;-77
2022/09/26 10:03:13;;;;;;;3.22;1.00;;;15.50;99.90;;;;;;5019778;28;20441;-77
2022/09/26 10:05:44;;;;;;;2.50;1.17;;;15.60;99.90;;;;;;5009624;28;20395;-78
2022/09/26 10:08:21;;;;;;;1.65;0.82;;;15.70;99.90;;;;;;5009773;28;20022;-78
2022/09/26 10:11:11;;;;;;;0.80;0.65;;;15.30;99.90;;;;;;5011305;28;20018;-77
2022/09/26 10:13:42;;;;;;;0.50;0.50;;;15.20;99.90;;;;;;5008555;28;20049;-77
2022/09/26 10:16:13;;;;;;;0.47;0.47;;;15.20;99.90;;;;;;5008656;28;20517;-77
2022/09/26 10:19:05;;;;;;;1.88;0.73;;;16.20;99.90;;;;;;5009232;28;20598;-77
2022/09/26 10:21:39;;;;;;;0.38;0.38;;;15.10;99.90;;;;;;5011308;28;20022;-77
2022/09/26 10:24:21;;;;;;;0.50;0.50;;;15.20;99.90;;;;;;5008659;28;20026;-77
2022/09/26 10:26:48;;;;;;;0.40;0.40;;;15.20;99.90;;;;;;5008822;28;20037;-77
2022/09/26 10:29:33;;;;;;;0.90;0.57;;;14.50;99.90;;;;;;5008613;28;20025;-77
2022/09/26 10:32:02;;;;;;;1.20;0.47;;;15.50;99.90;;;;;;5008919;28;20058;-77
2022/09/26 10:34:31;;;;;;;0.45;0.45;;;15.50;99.90;;;;;;5007370;28;20116;-78
2022/09/26 10:37:16;;;;;;;0.25;0.22;;;15.60;99.90;;;;;;5009213;28;20026;-77
2022/09/26 10:42:37;;;;;;;0.50;0.45;;;16.00;99.90;;;;;;5008623;28;20075;-77
2022/09/26 10:45:19;;;;;;;0.20;0.20;;;15.90;99.90;;;;;;5008532;28;20038;-77
2022/09/26 10:47:50;;;;;;;4.22;0.88;;;16.00;99.90;;;;;;5008050;28;20026;-76
2022/09/26 10:50:26;;;;;;;1.58;0.52;;;16.20;99.90;;;;;;5008334;28;20584;-77
2022/09/26 10:53:07;;;;;;;0.85;0.57;;;16.30;99.90;;;;;;5008168;28;20394;-77
2022/09/26 10:55:40;;;;;;;1.45;0.47;;;16.70;99.90;;;;;;5008197;28;20422;-77
2022/09/26 10:58:12;;;;;;;0.25;0.25;;;16.90;99.90;;;;;;5007966;28;20017;-76
2022/09/26 11:00:43;;;;;;;0.28;0.28;;;16.90;99.90;;;;;;5007897;28;20034;-77
2022/09/26 11:03:19;;;;;;;0.32;0.30;;;16.90;99.90;;;;;;5008179;28;20014;-77
2022/09/26 11:05:56;;;;;;;0.63;0.30;;;16.70;99.90;;;;;;5008097;28;20137;-76
2022/09/26 11:08:31;;;;;;;0.40;0.40;;;17.90;99.90;;;;;;5008042;28;20022;-76
2022/09/26 11:11:03;;;;;;;2.33;1.02;;;16.50;99.90;;;;;;5009630;28;20026;-77
2022/09/26 11:13:38;;;;;;;0.25;0.20;;;16.50;99.90;;;;;;5007480;28;20367;-77
2022/09/26 11:16:12;;;;;;;0.38;0.38;;;16.60;99.90;;;;;;5007574;28;20034;-77
2022/09/26 11:18:41;;;;;;;0.65;0.20;;;17.10;99.90;;;;;;5007238;28;20072;-77
2022/09/26 11:21:32;;;;;;;0.40;0.28;;;17.50;99.90;;;;;;5007877;28;20557;-76
2022/09/26 11:23:59;;;;;;;0.22;0.22;;;17.50;99.90;;;;;;5007257;28;20030;-77
2022/09/26 11:26:34;;;;;;;0.38;0.30;;;17.40;97.60;;;;;;5007843;28;20046;-76
2022/09/26 11:29:16;;;;;;;1.60;0.70;;;17.40;98.20;;;;;;5006721;28;20014;-76
2022/09/26 11:31:43;;;;;;;0.45;0.45;;;17.10;98.00;;;;;;5009399;28;20049;-77
2022/09/26 11:34:22;;;;;;;1.27;0.50;;;16.70;98.00;;;;;;5009238;28;20034;-76
2022/09/26 11:37:02;;;;;;;0.45;0.45;;;16.60;99.90;;;;;;5007814;28;20024;-79
2022/09/26 11:39:46;;;;;;;0.25;0.25;;;16.70;99.90;;;;;;5006147;28;20062;-78
2022/09/26 11:42:21;;;;;;;0.35;0.35;;;15.40;99.90;;;;;;5006933;28;20017;-78
2022/09/26 11:44:57;;;;;;;0.43;0.43;;;16.90;98.70;;;;;;5007416;28;20034;-77
2022/09/26 11:47:42;;;;;;;1.58;0.30;;;16.70;97.70;;;;;;5005722;28;20422;-75
2022/09/26 11:50:45;;;;;;;5.97;1.45;;;16.50;98.50;;;;;;5007812;28;20033;-77
2022/09/26 11:53:19;;;;;;;1.35;0.50;;;16.50;99.90;;;;;;5007315;28;20076;-76
2022/09/26 11:55:47;;;;;;;0.30;0.30;;;16.50;96.90;;;;;;5007841;28;20048;-76
2022/09/26 11:58:20;;;;;;;1.58;0.73;;;16.70;98.30;;;;;;5007081;28;20766;-77
2022/09/26 12:01:38;;;;;;;0.80;0.22;;;17.10;98.90;;;;;;5007239;28;20105;-77
2022/09/26 12:04:23;;;;;;;0.73;0.23;;;17.00;95.30;;;;;;4962795;28;20376;-77
2022/09/26 12:07:16;;;;;;;0.38;0.38;;;17.10;95.70;;;;;;4987851;28;20030;-78
2022/09/26 12:10:08;;;;;;;4.68;0.65;;;17.20;98.00;;;;;;4986166;28;20394;-78
2022/09/26 12:13:05;;;;;;;0.52;0.52;;;17.80;94.70;;;;;;4956489;28;20030;-78
2022/09/26 12:15:39;;;;;;;0.20;0.20;;;16.80;93.10;;;;;;4987353;28;20030;-79
2022/09/26 12:18:25;;;;;;;0.82;0.40;;;16.70;92.30;;;;;;4987576;28;20034;-78
2022/09/26 12:21:12;;;;;;;2.28;0.90;;;17.00;93.90;;;;;;5001980;28;20534;-78
2022/09/26 12:23:53;;;;;;;0.10;0.10;;;17.20;89.80;;;;;;4987521;28;20026;-78
2022/09/26 12:26:47;;;;;;;0.03;0.03;;;17.20;90.40;;;;;;4987584;28;20080;-77
2022/09/26 12:29:23;;;;;;;1.48;0.35;;;17.50;92.10;;;;;;4987553;28;20029;-77
2022/09/26 12:32:16;;;;;;;0.90;0.82;;;17.70;93.00;;;;;;4989032;28;20281;-77
2022/09/26 12:35:06;;;;;;;0.40;0.40;;;17.30;89.90;;;;;;4991153;28;20034;-75
2022/09/26 12:37:43;;;;;;;0.40;0.25;;;16.70;90.00;;;;;;4991215;28;20222;-76
2022/09/26 12:40:43;;;;;;;0.65;0.20;;;16.70;91.30;;;;;;4991302;28;20116;-76
2022/09/26 12:43:18;;;;;;;0.32;0.32;;;16.70;90.30;;;;;;4991165;28;20149;-74
2022/09/26 12:46:19;;;;;;;0.35;0.35;;;16.90;91.20;;;;;;4991145;28;20045;-76
2022/09/26 12:49:03;;;;;;;0.80;0.38;;;17.20;90.60;;;;;;4990975;28;20125;-77
2022/09/26 12:51:32;;;;;;;3.70;0.50;;;17.60;89.00;;;;;;4991091;28;20037;-76
2022/09/26 12:54:35;;;;;;;0.28;0.28;;;17.30;85.40;;;;;;4991605;28;20030;-76
2022/09/26 12:57:31;;;;;;;1.75;0.15;;;17.40;89.00;;;;;;5010248;28;20475;-79
2022/09/26 13:00:11;;;;;;;3.97;0.47;;;17.50;88.30;;;;;;4994352;28;20025;-77
2022/09/26 13:03:09;;;;;;;2.15;0.20;;;17.60;88.80;;;;;;5003753;28;20136;-77
2022/09/26 13:06:02;;;;;;;1.80;0.25;;;18.00;85.30;;;;;;5011009;28;20045;-78
2022/09/26 13:09:29;;;;;;;0.03;0.03;;;17.70;84.10;;;;;;5008680;28;20128;-76
2022/09/26 13:12:05;;;;;;;6.82;0.40;;;17.50;79.40;;;;;;4949100;29;20035;-78
2022/09/26 13:15:06;;;;;;;0.30;0.28;;;17.20;81.20;;;;;;4949073;29;20039;-75
2022/09/26 13:17:35;;;;;;;5.22;0.28;;;17.20;82.00;;;;;;5003311;28;20029;-77
2022/09/26 13:20:17;;;;;;;0.70;0.70;;;16.90;80.30;;;;;;5026312;28;20513;-76
2022/09/26 13:22:46;;;;;;;0.50;0.30;;;17.00;79.20;;;;;;5010429;28;20209;-76
2022/09/26 13:25:17;;;;;;;0.20;0.20;;;17.10;82.20;;;;;;5008515;28;20505;-75
2022/09/26 13:27:47;;;;;;;0.65;0.25;;;17.30;86.50;;;;;;5009628;28;20467;-75
2022/09/26 13:30:27;;;;;;;0.45;0.20;;;17.20;79.90;;;;;;5008681;28;20030;-77
2022/09/26 13:33:01;;;;;;;1.08;0.38;;;17.00;80.70;;;;;;5008744;28;20053;-76
2022/09/26 13:35:34;;;;;;;0.52;0.45;;;17.10;81.90;;;;;;5010220;28;20032;-76